createdAt,value
2023-03-14T00:00:10.885Z,8.90
2023-03-14T00:02:39.182Z,8.83
2023-03-14T00:05:08.353Z,8.20
2023-03-14T00:07:37.430Z,7.07
2023-03-14T00:10:06.575Z,4.00
2023-03-14T00:12:35.212Z,10.10
2023-03-14T00:15:05.370Z,9.43
2023-03-14T00:17:33.643Z,8.37
2023-03-14T00:20:05.376Z,4.90
2023-03-14T00:22:33.592Z,12.00
2023-03-14T00:25:01.758Z,8.57
2023-03-14T00:27:29.911Z,6.07
2023-03-14T00:29:58.071Z,10.20
2023-03-14T00:32:27.712Z,5.40
2023-03-14T00:34:55.928Z,7.60
2023-03-14T00:37:24.111Z,6.13
2023-03-14T00:39:53.913Z,4.90
2023-03-14T00:42:22.209Z,3.77
2023-03-14T00:44:50.375Z,3.97
2023-03-14T00:47:18.534Z,7.13
2023-03-14T00:49:48.054Z,3.60
2023-03-14T00:52:16.228Z,4.83
2023-03-14T00:54:44.495Z,5.03
2023-03-14T00:57:12.683Z,5.73
2023-03-14T00:59:40.959Z,5.57
2023-03-14T01:02:09.211Z,4.10
2023-03-14T01:04:38.647Z,6.37
2023-03-14T01:07:08.276Z,2.97
2023-03-14T01:09:36.420Z,4.27
2023-03-14T01:12:04.608Z,2.80
2023-03-14T01:14:32.765Z,4.50
2023-03-14T01:17:01.860Z,4.50
2023-03-14T01:19:30.333Z,7.20
2023-03-14T01:21:58.527Z,3.90
2023-03-14T01:24:28.101Z,4.43
2023-03-14T01:26:56.230Z,4.83
2023-03-14T01:29:24.410Z,6.73
2023-03-14T01:31:52.625Z,4.03
2023-03-14T01:34:20.803Z,5.00
2023-03-14T01:36:49.022Z,9.97
2023-03-14T01:39:17.447Z,6.37
2023-03-14T01:41:46.966Z,6.67
2023-03-14T01:44:15.644Z,6.17
2023-03-14T01:46:44.084Z,6.17
2023-03-14T01:49:17.483Z,7.43
2023-03-14T01:51:49.341Z,4.03
2023-03-14T01:54:18.995Z,5.47
2023-03-14T01:56:50.049Z,4.40
2023-03-14T01:59:18.245Z,7.50
2023-03-14T02:01:47.495Z,6.47
2023-03-14T02:04:15.768Z,7.53
2023-03-14T02:06:49.476Z,4.57
2023-03-14T02:09:18.108Z,5.90
2023-03-14T02:11:46.401Z,6.77
2023-03-14T02:14:20.347Z,5.20
2023-03-14T02:16:48.610Z,9.13
2023-03-14T02:19:20.216Z,12.57
2023-03-14T02:21:52.330Z,9.70
2023-03-14T02:24:23.813Z,9.80
2023-03-14T02:27:07.048Z,4.63
2023-03-14T02:29:36.331Z,8.43
2023-03-14T02:32:04.625Z,7.33
2023-03-14T02:34:33.338Z,10.93
2023-03-14T02:37:01.608Z,11.87
2023-03-14T02:39:32.110Z,9.83
2023-03-14T02:42:00.259Z,12.37
2023-03-14T02:44:29.767Z,10.27
2023-03-14T02:46:57.995Z,11.63
2023-03-14T02:49:26.586Z,12.93
2023-03-14T02:51:54.719Z,13.20
2023-03-14T02:54:23.288Z,6.10
2023-03-14T02:56:51.459Z,4.93
2023-03-14T02:59:19.617Z,7.73
2023-03-14T03:01:49.122Z,5.27
2023-03-14T03:04:17.353Z,5.13
2023-03-14T03:06:45.568Z,9.27
2023-03-14T03:09:13.725Z,11.53
2023-03-14T03:11:41.897Z,9.93
2023-03-14T03:14:10.053Z,5.20
2023-03-14T03:16:38.293Z,6.10
2023-03-14T03:19:07.839Z,5.27
2023-03-14T03:21:36.018Z,6.40
2023-03-14T03:24:04.193Z,2.63
2023-03-14T03:26:32.358Z,1.97
2023-03-14T03:29:00.497Z,4.20
2023-03-14T03:31:28.638Z,2.13
2023-03-14T03:33:56.955Z,3.03
2023-03-14T03:36:27.288Z,3.43
2023-03-14T03:38:55.457Z,6.07
2023-03-14T03:41:23.628Z,2.47
2023-03-14T03:43:51.820Z,2.87
2023-03-14T03:46:20.141Z,2.20
2023-03-14T03:48:48.332Z,1.77
2023-03-14T03:51:17.028Z,1.53
2023-03-14T03:53:46.529Z,1.40
2023-03-14T03:56:14.786Z,3.20
2023-03-14T03:58:43.056Z,0.73
2023-03-14T04:01:12.548Z,1.70
2023-03-14T04:03:41.461Z,1.33
2023-03-14T04:06:11.561Z,1.90
2023-03-14T04:08:39.944Z,0.57
2023-03-14T04:11:09.693Z,1.63
2023-03-14T04:13:37.869Z,0.60
2023-03-14T04:16:06.259Z,1.37
2023-03-14T04:18:34.432Z,0.97
2023-03-14T04:21:02.597Z,1.37
2023-03-14T04:23:30.888Z,0.50
2023-03-14T04:25:59.029Z,0.90
2023-03-14T04:28:28.533Z,1.13
2023-03-14T04:30:56.738Z,2.33
2023-03-14T04:33:25.064Z,0.50
2023-03-14T04:35:56.089Z,0.57
2023-03-14T04:38:24.316Z,1.13
2023-03-14T04:40:52.534Z,1.77
2023-03-14T04:43:20.782Z,0.50
2023-03-14T04:45:50.291Z,0.30
2023-03-14T04:48:18.479Z,1.50
2023-03-14T04:50:47.356Z,0.30
2023-03-14T04:53:15.517Z,0.30
2023-03-14T04:55:43.664Z,0.30
2023-03-14T04:58:11.810Z,0.10
2023-03-14T05:00:40.050Z,0.60
2023-03-14T05:03:09.666Z,3.10
2023-03-14T05:05:37.907Z,0.30
2023-03-14T05:08:06.061Z,0.20
2023-03-14T05:10:34.217Z,0.77
2023-03-14T05:13:02.367Z,0.20
2023-03-14T05:15:30.510Z,0.30
2023-03-14T05:17:58.652Z,1.40
2023-03-14T05:20:28.213Z,0.50
2023-03-14T05:22:56.497Z,0.33
2023-03-14T05:25:24.635Z,0.30
2023-03-14T05:27:52.790Z,0.53
2023-03-14T05:30:21.175Z,0.30
2023-03-14T05:32:49.442Z,0.20
2023-03-14T05:35:17.687Z,0.23
2023-03-14T05:37:47.296Z,0.20
2023-03-14T05:40:15.590Z,0.50
2023-03-14T05:42:43.760Z,0.40
2023-03-14T05:45:12.337Z,0.30
2023-03-14T05:47:40.516Z,1.20
2023-03-14T05:50:09.038Z,1.00
2023-03-14T05:52:37.256Z,0.30
2023-03-14T05:55:07.372Z,0.40
2023-03-14T05:57:35.583Z,0.20
2023-03-14T06:00:03.735Z,0.20
2023-03-14T06:02:31.976Z,0.40
2023-03-14T06:05:00.168Z,3.30
2023-03-14T06:07:28.361Z,1.17
2023-03-14T06:09:56.519Z,0.60
2023-03-14T06:12:26.019Z,0.40
2023-03-14T06:14:54.178Z,0.40
2023-03-14T06:17:22.330Z,0.40
2023-03-14T06:19:50.504Z,0.50
2023-03-14T06:22:18.718Z,0.40
2023-03-14T06:24:46.914Z,0.50
2023-03-14T06:27:15.084Z,0.60
2023-03-14T06:29:44.665Z,0.40
2023-03-14T06:32:12.820Z,2.77
2023-03-14T06:34:41.692Z,0.50
2023-03-14T06:37:09.979Z,0.63
2023-03-14T06:39:39.501Z,0.50
2023-03-14T06:42:07.911Z,0.83
2023-03-14T06:44:36.168Z,0.50
2023-03-14T06:47:05.710Z,0.50
2023-03-14T06:49:33.850Z,0.80
2023-03-14T06:52:02.005Z,1.30
2023-03-14T06:54:30.186Z,0.80
2023-03-14T06:56:58.424Z,1.53
2023-03-14T06:59:26.679Z,1.10
2023-03-14T07:01:54.905Z,0.80
2023-03-14T07:04:24.420Z,1.00
2023-03-14T07:06:52.670Z,1.07
2023-03-14T07:09:20.824Z,0.87
2023-03-14T07:11:49.021Z,2.03
2023-03-14T07:14:17.292Z,0.80
2023-03-14T07:16:46.107Z,1.07
2023-03-14T07:19:14.268Z,0.60
2023-03-14T07:21:43.917Z,0.73
2023-03-14T07:24:12.114Z,0.70
2023-03-14T07:26:40.311Z,0.70
2023-03-14T07:29:08.507Z,0.90
2023-03-14T07:31:36.666Z,0.87
2023-03-14T07:34:04.962Z,0.70
2023-03-14T07:36:33.152Z,1.13
2023-03-14T07:39:02.692Z,0.80
2023-03-14T07:41:30.876Z,0.80
2023-03-14T07:43:59.025Z,1.03
2023-03-14T07:46:27.434Z,0.60
2023-03-14T07:48:55.690Z,1.60
2023-03-14T07:51:23.895Z,1.30
2023-03-14T07:53:52.106Z,1.23
2023-03-14T07:56:21.622Z,0.73
2023-03-14T07:58:49.825Z,1.37
2023-03-14T08:01:18.030Z,1.47
2023-03-14T08:03:46.236Z,1.00
2023-03-14T08:06:14.373Z,1.50
2023-03-14T08:08:42.693Z,1.27
2023-03-14T08:11:10.908Z,2.40
2023-03-14T08:13:40.678Z,1.13
2023-03-14T08:16:09.270Z,0.90
2023-03-14T08:18:37.462Z,1.03
2023-03-14T08:21:05.701Z,1.07
2023-03-14T08:23:33.890Z,1.53
2023-03-14T08:26:02.085Z,1.00
2023-03-14T08:28:31.595Z,1.70
2023-03-14T08:31:01.596Z,0.60
2023-03-14T08:33:31.079Z,0.60
2023-03-14T08:36:00.374Z,0.90
2023-03-14T08:38:28.957Z,1.50
2023-03-14T08:41:00.561Z,2.73
2023-03-14T08:43:28.884Z,0.70
2023-03-14T08:46:01.397Z,0.57
2023-03-14T08:48:31.367Z,0.83
2023-03-14T08:50:59.916Z,1.40
2023-03-14T08:53:28.106Z,1.40
2023-03-14T08:55:56.450Z,1.03
2023-03-14T08:58:24.788Z,0.90
2023-03-14T09:00:53.143Z,0.93
2023-03-14T09:03:24.032Z,0.70
2023-03-14T09:05:52.445Z,0.80
2023-03-14T09:08:20.657Z,0.90
2023-03-14T09:10:48.867Z,0.70
2023-03-14T09:13:17.036Z,1.73
2023-03-14T09:15:45.228Z,1.50
2023-03-14T09:18:13.381Z,0.80
2023-03-14T09:20:43.822Z,1.07
2023-03-14T09:23:11.996Z,2.70
2023-03-14T09:25:40.225Z,1.40
2023-03-14T09:28:08.408Z,1.50
2023-03-14T09:30:36.651Z,1.53
2023-03-14T09:33:04.938Z,2.63
2023-03-14T09:35:33.194Z,2.37
2023-03-14T09:38:02.730Z,1.93
2023-03-14T09:40:34.304Z,2.77
2023-03-14T09:43:02.585Z,2.63
2023-03-14T09:45:32.076Z,2.97
2023-03-14T09:48:00.441Z,2.77
2023-03-14T09:50:29.260Z,2.43
2023-03-14T09:52:59.495Z,3.07
2023-03-14T09:55:29.050Z,2.20
2023-03-14T09:57:59.144Z,6.30
2023-03-14T10:00:28.860Z,4.17
2023-03-14T10:02:57.966Z,2.87
2023-03-14T10:05:28.894Z,2.60
2023-03-14T10:07:57.048Z,3.03
2023-03-14T10:10:26.799Z,2.87
2023-03-14T10:12:59.566Z,3.03
2023-03-14T10:15:28.691Z,2.97
2023-03-14T10:17:56.860Z,4.07
2023-03-14T10:20:33.359Z,3.37
2023-03-14T10:23:02.004Z,3.03
2023-03-14T10:25:31.167Z,3.40
2023-03-14T10:28:01.130Z,5.23
2023-03-14T10:30:31.539Z,8.33
2023-03-14T10:32:59.827Z,3.30
2023-03-14T10:35:27.974Z,4.00
2023-03-14T10:37:58.835Z,31.07
2023-03-14T10:40:30.468Z,3.13
2023-03-14T10:43:00.482Z,3.67
2023-03-14T10:45:34.934Z,3.67
2023-03-14T10:48:09.193Z,5.97
2023-03-14T10:50:37.550Z,3.57
2023-03-14T10:53:07.164Z,3.83
2023-03-14T10:55:43.067Z,2.10
2023-03-14T10:58:24.563Z,1.27
2023-03-14T11:00:56.609Z,2.50
2023-03-14T11:03:26.118Z,1.10
2023-03-14T11:05:56.486Z,2.43
2023-03-14T11:08:27.325Z,1.20
2023-03-14T11:10:57.186Z,1.17
2023-03-14T11:13:27.759Z,4.60
2023-03-14T11:16:00.701Z,1.30
2023-03-14T11:18:39.212Z,1.20
2023-03-14T11:21:11.616Z,1.57
2023-03-14T11:23:44.939Z,4.20
2023-03-14T11:26:22.069Z,3.10
2023-03-14T11:28:52.016Z,3.00
2023-03-14T11:31:23.601Z,2.33
2023-03-14T11:33:56.659Z,3.27
2023-03-14T11:36:30.067Z,1.73
2023-03-14T11:38:59.422Z,2.67
2023-03-14T11:41:28.569Z,1.83
2023-03-14T11:43:58.082Z,1.80
2023-03-14T11:46:29.052Z,2.60
2023-03-14T11:49:02.227Z,3.03
2023-03-14T11:51:32.122Z,1.80
2023-03-14T11:54:02.757Z,1.00
2023-03-14T11:56:34.315Z,1.17
2023-03-14T11:59:04.152Z,1.40
2023-03-14T12:01:40.408Z,2.00
2023-03-14T12:04:12.141Z,1.03
2023-03-14T12:06:43.484Z,1.80
2023-03-14T12:09:12.225Z,1.43
2023-03-14T12:11:43.185Z,1.87
2023-03-14T12:14:26.094Z,2.53
2023-03-14T12:16:59.204Z,1.97
2023-03-14T12:19:32.082Z,2.53
2023-03-14T12:22:08.461Z,1.13
2023-03-14T12:24:38.073Z,2.00
2023-03-14T12:27:09.998Z,2.87
2023-03-14T12:30:00.751Z,2.03
2023-03-14T12:32:33.206Z,2.10
2023-03-14T12:35:09.668Z,1.87
2023-03-14T12:37:39.298Z,1.90
2023-03-14T12:40:18.535Z,3.07
2023-03-14T12:42:54.108Z,1.80
2023-03-14T12:45:29.759Z,3.57
2023-03-14T12:48:04.219Z,2.00
2023-03-14T12:50:37.397Z,4.37
2023-03-14T12:53:24.210Z,1.13
2023-03-14T12:55:55.325Z,2.03
2023-03-14T12:58:28.302Z,5.80
2023-03-14T13:00:58.346Z,2.03
2023-03-14T13:03:29.783Z,1.00
2023-03-14T13:05:59.625Z,1.43
2023-03-14T13:08:40.547Z,3.33
2023-03-14T13:11:10.551Z,1.27
2023-03-14T13:13:39.872Z,1.20
2023-03-14T13:16:08.211Z,2.30
2023-03-14T13:18:39.144Z,4.73
2023-03-14T13:21:09.471Z,3.23
2023-03-14T13:23:39.193Z,6.13
2023-03-14T13:26:09.197Z,3.20
2023-03-14T13:28:37.673Z,3.17
2023-03-14T13:31:07.153Z,4.73
2023-03-14T13:33:35.879Z,5.80
2023-03-14T13:36:06.705Z,3.70
2023-03-14T13:38:36.882Z,2.60
2023-03-14T13:41:07.238Z,1.33
2023-03-14T13:43:36.756Z,2.60
2023-03-14T13:46:06.942Z,0.73
2023-03-14T13:48:36.191Z,1.17
2023-03-14T13:51:07.107Z,5.70
2023-03-14T13:53:44.573Z,0.93
2023-03-14T13:56:13.414Z,4.57
2023-03-14T13:58:42.954Z,1.30
2023-03-14T14:01:15.314Z,7.43
2023-03-14T14:03:44.577Z,3.53
2023-03-14T14:06:22.365Z,4.10
2023-03-14T14:08:50.687Z,9.63
2023-03-14T14:11:26.016Z,9.67
2023-03-14T14:13:56.842Z,7.93
2023-03-14T14:16:27.127Z,4.03
2023-03-14T14:18:57.048Z,3.77
2023-03-14T14:21:26.738Z,5.03
2023-03-14T14:23:55.134Z,5.27
2023-03-14T14:26:23.306Z,6.80
2023-03-14T14:29:00.913Z,7.10
2023-03-14T14:31:29.164Z,8.40
2023-03-14T14:33:58.318Z,9.20
2023-03-14T14:36:30.406Z,9.23
2023-03-14T14:39:01.059Z,8.93
2023-03-14T14:41:30.332Z,17.97
2023-03-14T14:43:58.765Z,8.87
2023-03-14T14:46:28.265Z,10.53
2023-03-14T14:48:58.255Z,9.20
2023-03-14T14:51:33.688Z,7.03
2023-03-14T14:54:19.902Z,6.23
2023-03-14T14:56:52.909Z,8.87
2023-03-14T14:59:25.812Z,10.60
2023-03-14T15:01:57.814Z,11.43
2023-03-14T15:04:26.277Z,12.30
2023-03-14T15:06:55.852Z,15.13
2023-03-14T15:09:24.040Z,12.60
2023-03-14T15:11:52.513Z,12.27
2023-03-14T15:14:20.687Z,9.43
2023-03-14T15:16:48.857Z,9.13
2023-03-14T15:19:24.923Z,16.97
2023-03-14T15:21:53.731Z,10.17
2023-03-14T15:24:23.501Z,9.73
2023-03-14T15:26:51.659Z,8.80
2023-03-14T15:29:19.876Z,5.00
2023-03-14T15:31:48.311Z,6.77
2023-03-14T15:34:17.545Z,4.83
2023-03-14T15:36:45.705Z,10.43
2023-03-14T15:39:13.943Z,5.97
2023-03-14T15:41:43.445Z,7.83
2023-03-14T15:44:11.598Z,6.57
2023-03-14T15:46:39.781Z,6.50
2023-03-14T15:49:07.946Z,9.87
2023-03-14T15:51:36.125Z,7.13
2023-03-14T15:54:04.327Z,5.93
2023-03-14T15:56:32.749Z,8.00
2023-03-14T15:59:02.692Z,12.40
2023-03-14T16:01:30.969Z,8.20
2023-03-14T16:03:59.152Z,11.13
2023-03-14T16:06:27.362Z,7.13
2023-03-14T16:08:55.527Z,8.93
2023-03-14T16:11:23.717Z,11.03
2023-03-14T16:13:52.114Z,12.47
2023-03-14T16:16:21.788Z,9.37
2023-03-14T16:18:50.061Z,12.60
2023-03-14T16:21:21.200Z,13.70
2023-03-14T16:23:49.717Z,9.77
2023-03-14T16:26:18.912Z,11.47
2023-03-14T16:28:47.684Z,8.47
2023-03-14T16:31:16.817Z,9.63
2023-03-14T16:33:46.413Z,10.53
2023-03-14T16:36:15.863Z,7.73
2023-03-14T16:38:44.903Z,8.93
2023-03-14T16:41:14.400Z,7.43
2023-03-14T16:43:42.780Z,7.30
2023-03-14T16:46:13.535Z,9.50
2023-03-14T16:48:41.729Z,8.53
2023-03-14T16:51:11.252Z,9.43
2023-03-14T16:53:39.407Z,8.60
2023-03-14T16:56:08.318Z,11.60
2023-03-14T16:58:36.546Z,3.57
2023-03-14T17:01:10.502Z,4.93
2023-03-14T17:03:39.507Z,5.83
2023-03-14T17:06:07.889Z,6.77
2023-03-14T17:08:37.378Z,6.40
2023-03-14T17:11:05.614Z,5.43
2023-03-14T17:13:33.774Z,6.17
2023-03-14T17:16:02.662Z,8.37
2023-03-14T17:18:31.428Z,7.23
2023-03-14T17:21:00.030Z,6.83
2023-03-14T17:23:28.702Z,10.83
2023-03-14T17:25:58.599Z,6.50
2023-03-14T17:28:27.850Z,8.30
2023-03-14T17:31:03.254Z,5.50
2023-03-14T17:33:31.541Z,6.57
2023-03-14T17:35:59.739Z,7.50
2023-03-14T17:38:28.142Z,3.27
2023-03-14T17:40:57.697Z,8.90
2023-03-14T17:43:25.869Z,3.60
2023-03-14T17:46:00.415Z,8.77
2023-03-14T17:48:28.817Z,10.50
2023-03-14T17:51:00.027Z,7.83
2023-03-14T17:53:29.785Z,6.97
2023-03-14T17:55:59.640Z,9.43
2023-03-14T17:58:28.208Z,5.40
2023-03-14T18:00:56.689Z,3.10
2023-03-14T18:03:25.015Z,6.50
2023-03-14T18:05:53.200Z,6.27
2023-03-14T18:08:21.559Z,3.57
2023-03-14T18:10:54.732Z,4.43
2023-03-14T18:13:24.271Z,5.53
2023-03-14T18:15:53.178Z,8.70
2023-03-14T18:18:21.654Z,9.70
2023-03-14T18:20:53.666Z,4.83
2023-03-14T18:23:22.288Z,6.37
2023-03-14T18:25:50.526Z,7.23
2023-03-14T18:28:19.157Z,5.67
2023-03-14T18:30:52.298Z,4.53
2023-03-14T18:33:21.950Z,5.47
2023-03-14T18:35:52.104Z,3.77
2023-03-14T18:38:20.439Z,7.27
2023-03-14T18:40:48.625Z,5.60
2023-03-14T18:43:16.825Z,6.40
2023-03-14T18:45:44.967Z,9.30
2023-03-14T18:48:15.751Z,7.83
2023-03-14T18:50:43.919Z,8.57
2023-03-14T18:53:12.083Z,5.43
2023-03-14T18:55:41.025Z,7.63
2023-03-14T18:58:09.202Z,6.50
2023-03-14T19:00:37.529Z,5.17
2023-03-14T19:03:05.874Z,8.73
2023-03-14T19:05:35.456Z,5.13
2023-03-14T19:08:03.728Z,7.77
2023-03-14T19:10:33.376Z,6.87
2023-03-14T19:13:01.800Z,7.77
2023-03-14T19:15:30.007Z,5.73
2023-03-14T19:17:58.242Z,7.17
2023-03-14T19:20:26.413Z,13.93
2023-03-14T19:22:58.316Z,14.43
2023-03-14T19:25:26.649Z,10.73
2023-03-14T19:27:54.844Z,8.60
2023-03-14T19:30:23.199Z,7.33
2023-03-14T19:32:51.609Z,14.17
2023-03-14T19:35:19.996Z,7.07
2023-03-14T19:37:48.211Z,11.43
2023-03-14T19:40:17.988Z,8.67
2023-03-14T19:42:46.187Z,10.97
2023-03-14T19:45:14.351Z,7.30
2023-03-14T19:47:42.506Z,10.13
2023-03-14T19:50:11.485Z,13.07
2023-03-14T19:52:43.823Z,9.97
2023-03-14T19:55:12.641Z,9.93
2023-03-14T19:57:42.172Z,7.47
2023-03-14T20:00:16.767Z,9.40
2023-03-14T20:02:45.071Z,9.93
2023-03-14T20:05:14.397Z,13.07
2023-03-14T20:07:42.591Z,8.17
2023-03-14T20:10:11.778Z,11.23
2023-03-14T20:12:40.556Z,8.33
2023-03-14T20:15:10.991Z,17.47
2023-03-14T20:17:39.295Z,15.10
2023-03-14T20:20:09.322Z,9.03
2023-03-14T20:22:38.380Z,17.30
2023-03-14T20:25:07.290Z,10.70
2023-03-14T20:27:35.518Z,8.90
2023-03-14T20:30:07.672Z,5.60
2023-03-14T20:32:37.303Z,12.07
2023-03-14T20:35:05.566Z,6.20
2023-03-14T20:37:33.719Z,10.43
2023-03-14T20:40:01.909Z,8.60
2023-03-14T20:42:30.138Z,10.87
2023-03-14T20:44:58.322Z,13.63
2023-03-14T20:47:26.485Z,6.93
2023-03-14T20:49:56.015Z,13.30
2023-03-14T20:52:24.425Z,6.57
2023-03-14T20:54:52.592Z,12.40
2023-03-14T20:57:21.057Z,8.67
2023-03-14T20:59:49.217Z,13.20
2023-03-14T21:02:17.480Z,10.93
2023-03-14T21:04:45.871Z,6.93
2023-03-14T21:07:15.454Z,10.60
2023-03-14T21:09:43.673Z,11.13
2023-03-14T21:12:11.873Z,8.63
2023-03-14T21:14:40.203Z,12.23
2023-03-14T21:17:08.365Z,9.13
2023-03-14T21:19:36.562Z,14.10
2023-03-14T21:22:05.794Z,10.83
2023-03-14T21:24:35.375Z,10.30
2023-03-14T21:27:03.593Z,11.63
2023-03-14T21:29:31.736Z,8.83
2023-03-14T21:31:59.918Z,12.47
2023-03-14T21:34:28.544Z,11.97
2023-03-14T21:36:56.713Z,9.73
2023-03-14T21:39:24.887Z,8.60
2023-03-14T21:41:54.640Z,14.47
2023-03-14T21:44:22.907Z,11.07
2023-03-14T21:46:51.133Z,8.27
2023-03-14T21:49:19.379Z,11.90
2023-03-14T21:51:47.537Z,7.80
2023-03-14T21:54:16.545Z,11.23
2023-03-14T21:56:44.960Z,12.83
2023-03-14T21:59:15.420Z,8.27
2023-03-14T22:01:43.688Z,10.73
2023-03-14T22:04:11.876Z,8.67
2023-03-14T22:06:40.063Z,12.33
2023-03-14T22:09:08.408Z,14.07
2023-03-14T22:11:36.595Z,11.57
2023-03-14T22:14:04.802Z,14.20
2023-03-14T22:16:34.420Z,9.87
2023-03-14T22:19:02.634Z,13.40
2023-03-14T22:21:31.111Z,11.53
2023-03-14T22:23:59.305Z,15.23
2023-03-14T22:26:27.483Z,8.40
2023-03-14T22:28:55.626Z,17.77
2023-03-14T22:31:23.820Z,9.57
2023-03-14T22:33:53.332Z,8.07
2023-03-14T22:36:21.513Z,13.90
2023-03-14T22:38:49.656Z,12.07
2023-03-14T22:41:17.910Z,10.93
2023-03-14T22:43:46.176Z,17.33
2023-03-14T22:46:14.366Z,14.93
2023-03-14T22:48:42.536Z,16.10
2023-03-14T22:51:13.519Z,13.43
2023-03-14T22:53:41.761Z,12.73
2023-03-14T22:56:10.322Z,15.53
2023-03-14T22:58:38.562Z,16.67
2023-03-14T23:01:07.123Z,18.47
2023-03-14T23:03:35.376Z,14.07
2023-03-14T23:06:03.803Z,15.70
2023-03-14T23:08:33.449Z,20.03
2023-03-14T23:11:02.581Z,18.37
2023-03-14T23:13:31.312Z,14.37
2023-03-14T23:15:59.805Z,16.33
2023-03-14T23:18:28.283Z,16.43
2023-03-14T23:21:06.235Z,20.90
2023-03-14T23:23:35.867Z,18.60
2023-03-14T23:26:04.270Z,21.17
2023-03-14T23:28:32.672Z,18.33
2023-03-14T23:31:01.243Z,13.93
2023-03-14T23:33:31.230Z,17.87
2023-03-14T23:35:59.446Z,22.63
2023-03-14T23:38:27.617Z,16.60
2023-03-14T23:40:57.132Z,18.27
2023-03-14T23:43:25.365Z,18.37
2023-03-14T23:45:54.241Z,19.33
2023-03-14T23:48:25.671Z,19.13
2023-03-14T23:50:55.446Z,23.13
2023-03-14T23:53:23.615Z,19.00
2023-03-14T23:55:51.803Z,21.17
2023-03-14T23:58:21.469Z,19.50
